sensor_id;sensor_type;location;lat;lon;timestamp;pressure;altitude;pressure_sealevel;temperature
77331;BMP280;66405;48.328;7.820;2023-02-04T00:00:44;101466.03;;;8.18
77331;BMP280;66405;48.328;7.820;2023-02-04T00:03:10;101464.91;;;8.16
77331;BMP280;66405;48.328;7.820;2023-02-04T00:05:36;101464.50;;;8.17
77331;BMP280;66405;48.328;7.820;2023-02-04T00:08:02;101461.44;;;8.19
77331;BMP280;66405;48.328;7.820;2023-02-04T00:10:28;101463.75;;;8.21
77331;BMP280;66405;48.328;7.820;2023-02-04T00:12:53;101453.38;;;8.19
77331;BMP280;66405;48.328;7.820;2023-02-04T00:15:19;101454.13;;;8.19
77331;BMP280;66405;48.328;7.820;2023-02-04T00:17:44;101457.97;;;8.18
77331;BMP280;66405;48.328;7.820;2023-02-04T00:20:12;101445.28;;;8.19
77331;BMP280;66405;48.328;7.820;2023-02-04T00:22:37;101451.44;;;8.19
77331;BMP280;66405;48.328;7.820;2023-02-04T00:25:03;101454.91;;;8.24
77331;BMP280;66405;48.328;7.820;2023-02-04T00:27:28;101449.88;;;8.22
77331;BMP280;66405;48.328;7.820;2023-02-04T00:29:54;101442.59;;;8.23
77331;BMP280;66405;48.328;7.820;2023-02-04T00:32:19;101445.28;;;8.23
77331;BMP280;66405;48.328;7.820;2023-02-04T00:34:45;101444.88;;;8.24
77331;BMP280;66405;48.328;7.820;2023-02-04T00:37:10;101449.13;;;8.22
77331;BMP280;66405;48.328;7.820;2023-02-04T00:39:36;101446.81;;;8.20
77331;BMP280;66405;48.328;7.820;2023-02-04T00:42:04;101447.97;;;8.19
77331;BMP280;66405;48.328;7.820;2023-02-04T00:44:30;101443.75;;;8.22
77331;BMP280;66405;48.328;7.820;2023-02-04T00:46:56;101450.66;;;8.23
77331;BMP280;66405;48.328;7.820;2023-02-04T00:49:21;101449.13;;;8.22
77331;BMP280;66405;48.328;7.820;2023-02-04T00:51:48;101454.50;;;8.25
77331;BMP280;66405;48.328;7.820;2023-02-04T00:54:14;101444.50;;;8.26
77331;BMP280;66405;48.328;7.820;2023-02-04T00:56:40;101437.56;;;8.25
77331;BMP280;66405;48.328;7.820;2023-02-04T00:59:06;101449.53;;;8.24
77331;BMP280;66405;48.328;7.820;2023-02-04T01:01:33;101446.03;;;8.23
77331;BMP280;66405;48.328;7.820;2023-02-04T01:03:58;101442.19;;;8.24
77331;BMP280;66405;48.328;7.820;2023-02-04T01:06:24;101437.19;;;8.23
77331;BMP280;66405;48.328;7.820;2023-02-04T01:08:49;101443.34;;;8.23
77331;BMP280;66405;48.328;7.820;2023-02-04T01:11:15;101442.19;;;8.24
77331;BMP280;66405;48.328;7.820;2023-02-04T01:13:41;101442.56;;;8.26
77331;BMP280;66405;48.328;7.820;2023-02-04T01:16:06;101444.13;;;8.24
77331;BMP280;66405;48.328;7.820;2023-02-04T01:18:31;101436.41;;;8.26
77331;BMP280;66405;48.328;7.820;2023-02-04T01:20:57;101434.47;;;8.26
77331;BMP280;66405;48.328;7.820;2023-02-04T01:23:22;101449.50;;;8.27
77331;BMP280;66405;48.328;7.820;2023-02-04T01:25:48;101437.19;;;8.26
77331;BMP280;66405;48.328;7.820;2023-02-04T01:28:13;101450.25;;;8.28
77331;BMP280;66405;48.328;7.820;2023-02-04T01:30:39;101454.88;;;8.27
77331;BMP280;66405;48.328;7.820;2023-02-04T01:33:04;101461.81;;;8.28
77331;BMP280;66405;48.328;7.820;2023-02-04T01:35:29;101447.19;;;8.29
77331;BMP280;66405;48.328;7.820;2023-02-04T01:37:55;101452.59;;;8.29
77331;BMP280;66405;48.328;7.820;2023-02-04T01:40:21;101457.19;;;8.29
77331;BMP280;66405;48.328;7.820;2023-02-04T01:42:46;101452.59;;;8.29
77331;BMP280;66405;48.328;7.820;2023-02-04T01:45:12;101454.09;;;8.27
77331;BMP280;66405;48.328;7.820;2023-02-04T01:47:38;101454.88;;;8.27
77331;BMP280;66405;48.328;7.820;2023-02-04T01:50:05;101452.94;;;8.28
77331;BMP280;66405;48.328;7.820;2023-02-04T01:52:34;101457.19;;;8.29
77331;BMP280;66405;48.328;7.820;2023-02-04T01:55:01;101463.34;;;8.29
77331;BMP280;66405;48.328;7.820;2023-02-04T01:57:27;101445.66;;;8.28
77331;BMP280;66405;48.328;7.820;2023-02-04T01:59:54;101436.03;;;8.27
77331;BMP280;66405;48.328;7.820;2023-02-04T02:02:41;101435.25;;;8.27
77331;BMP280;66405;48.328;7.820;2023-02-04T02:05:10;101437.56;;;8.28
77331;BMP280;66405;48.328;7.820;2023-02-04T02:07:36;101439.88;;;8.30
77331;BMP280;66405;48.328;7.820;2023-02-04T02:10:04;101446.03;;;8.30
77331;BMP280;66405;48.328;7.820;2023-02-04T02:12:30;101433.34;;;8.31
77331;BMP280;66405;48.328;7.820;2023-02-04T02:14:56;101431.03;;;8.29
77331;BMP280;66405;48.328;7.820;2023-02-04T02:17:21;101427.94;;;8.31
77331;BMP280;66405;48.328;7.820;2023-02-04T02:19:47;101422.16;;;8.29
77331;BMP280;66405;48.328;7.820;2023-02-04T02:22:19;101430.63;;;8.31
77331;BMP280;66405;48.328;7.820;2023-02-04T02:24:46;101433.34;;;8.31
77331;BMP280;66405;48.328;7.820;2023-02-04T02:27:11;101426.00;;;8.28
77331;BMP280;66405;48.328;7.820;2023-02-04T02:29:39;101437.94;;;8.27
77331;BMP280;66405;48.328;7.820;2023-02-04T02:32:07;101438.72;;;8.27
77331;BMP280;66405;48.328;7.820;2023-02-04T02:34:33;101436.41;;;8.29
77331;BMP280;66405;48.328;7.820;2023-02-04T02:37:01;101437.97;;;8.30
77331;BMP280;66405;48.328;7.820;2023-02-04T02:39:27;101438.31;;;8.32
77331;BMP280;66405;48.328;7.820;2023-02-04T02:41:54;101441.03;;;8.32
77331;BMP280;66405;48.328;7.820;2023-02-04T02:44:20;101439.88;;;8.33
77331;BMP280;66405;48.328;7.820;2023-02-04T02:46:47;101452.94;;;8.35
77331;BMP280;66405;48.328;7.820;2023-02-04T02:49:17;101451.75;;;8.36
77331;BMP280;66405;48.328;7.820;2023-02-04T02:51:44;101459.84;;;8.36
77331;BMP280;66405;48.328;7.820;2023-02-04T02:54:27;101447.16;;;8.37
77331;BMP280;66405;48.328;7.820;2023-02-04T02:56:56;101445.22;;;8.37
77331;BMP280;66405;48.328;7.820;2023-02-04T02:59:23;101449.84;;;8.37
77331;BMP280;66405;48.328;7.820;2023-02-04T03:01:54;101449.47;;;8.38
77331;BMP280;66405;48.328;7.820;2023-02-04T03:04:24;101447.56;;;8.39
77331;BMP280;66405;48.328;7.820;2023-02-04T03:06:51;101447.56;;;8.39
77331;BMP280;66405;48.328;7.820;2023-02-04T03:09:18;101444.06;;;8.38
77331;BMP280;66405;48.328;7.820;2023-02-04T03:11:46;101443.31;;;8.38
77331;BMP280;66405;48.328;7.820;2023-02-04T03:14:11;101441.38;;;8.38
77331;BMP280;66405;48.328;7.820;2023-02-04T03:16:37;101442.53;;;8.37
77331;BMP280;66405;48.328;7.820;2023-02-04T03:19:05;101441.78;;;8.37
77331;BMP280;66405;48.328;7.820;2023-02-04T03:21:31;101437.94;;;8.38
77331;BMP280;66405;48.328;7.820;2023-02-04T03:23:57;101434.47;;;8.33
77331;BMP280;66405;48.328;7.820;2023-02-04T03:26:24;101431.03;;;8.33
77331;BMP280;66405;48.328;7.820;2023-02-04T03:28:49;101432.56;;;8.34
77331;BMP280;66405;48.328;7.820;2023-02-04T03:31:15;101436.41;;;8.33
77331;BMP280;66405;48.328;7.820;2023-02-04T03:33:40;101434.47;;;8.33
77331;BMP280;66405;48.328;7.820;2023-02-04T03:36:07;101444.09;;;8.34
77331;BMP280;66405;48.328;7.820;2023-02-04T03:38:33;101444.84;;;8.35
77331;BMP280;66405;48.328;7.820;2023-02-04T03:40:58;101439.47;;;8.35
77331;BMP280;66405;48.328;7.820;2023-02-04T03:43:24;101447.16;;;8.37
77331;BMP280;66405;48.328;7.820;2023-02-04T03:45:49;101447.16;;;8.37
77331;BMP280;66405;48.328;7.820;2023-02-04T03:48:15;101444.47;;;8.37
77331;BMP280;66405;48.328;7.820;2023-02-04T03:50:40;101445.63;;;8.39
77331;BMP280;66405;48.328;7.820;2023-02-04T03:53:06;101444.47;;;8.40
77331;BMP280;66405;48.328;7.820;2023-02-04T03:55:31;101443.72;;;8.40
77331;BMP280;66405;48.328;7.820;2023-02-04T03:57:57;101451.78;;;8.43
77331;BMP280;66405;48.328;7.820;2023-02-04T04:00:22;101453.31;;;8.44
77331;BMP280;66405;48.328;7.820;2023-02-04T04:02:48;101456.38;;;8.46
77331;BMP280;66405;48.328;7.820;2023-02-04T04:05:13;101458.69;;;8.48
77331;BMP280;66405;48.328;7.820;2023-02-04T04:07:39;101467.91;;;8.47
77331;BMP280;66405;48.328;7.820;2023-02-04T04:10:05;101459.47;;;8.45
77331;BMP280;66405;48.328;7.820;2023-02-04T04:12:30;101458.31;;;8.46
77331;BMP280;66405;48.328;7.820;2023-02-04T04:14:55;101456.03;;;8.44
77331;BMP280;66405;48.328;7.820;2023-02-04T04:17:21;101451.00;;;8.43
77331;BMP280;66405;48.328;7.820;2023-02-04T04:19:46;101461.03;;;8.42
77331;BMP280;66405;48.328;7.820;2023-02-04T04:22:13;101450.63;;;8.41
77331;BMP280;66405;48.328;7.820;2023-02-04T04:24:39;101457.19;;;8.40
77331;BMP280;66405;48.328;7.820;2023-02-04T04:27:04;101450.63;;;8.41
77331;BMP280;66405;48.328;7.820;2023-02-04T04:29:30;101449.47;;;8.42
77331;BMP280;66405;48.328;7.820;2023-02-04T04:31:55;101451.00;;;8.43
77331;BMP280;66405;48.328;7.820;2023-02-04T04:34:21;101456.03;;;8.44
77331;BMP280;66405;48.328;7.820;2023-02-04T04:36:46;101458.31;;;8.46
77331;BMP280;66405;48.328;7.820;2023-02-04T04:39:12;101454.84;;;8.49
77331;BMP280;66405;48.328;7.820;2023-02-04T04:41:37;101453.69;;;8.50
77331;BMP280;66405;48.328;7.820;2023-02-04T04:44:03;101456.75;;;8.52
77331;BMP280;66405;48.328;7.820;2023-02-04T04:46:28;101459.06;;;8.54
77331;BMP280;66405;48.328;7.820;2023-02-04T04:48:53;101452.16;;;8.52
77331;BMP280;66405;48.328;7.820;2023-02-04T04:51:19;101453.69;;;8.54
77331;BMP280;66405;48.328;7.820;2023-02-04T04:53:44;101467.91;;;8.54
77331;BMP280;66405;48.328;7.820;2023-02-04T04:56:10;101467.91;;;8.54
77331;BMP280;66405;48.328;7.820;2023-02-04T04:58:35;101472.91;;;8.56
77331;BMP280;66405;48.328;7.820;2023-02-04T05:01:01;101472.53;;;8.57
77331;BMP280;66405;48.328;7.820;2023-02-04T05:03:26;101469.03;;;8.57
77331;BMP280;66405;48.328;7.820;2023-02-04T05:05:51;101466.34;;;8.57
77331;BMP280;66405;48.328;7.820;2023-02-04T05:08:17;101477.56;;;8.55
77331;BMP280;66405;48.328;7.820;2023-02-04T05:10:44;101473.31;;;8.54
77331;BMP280;66405;48.328;7.820;2023-02-04T05:13:10;101482.50;;;8.57
77331;BMP280;66405;48.328;7.820;2023-02-04T05:15:36;101480.22;;;8.59
77331;BMP280;66405;48.328;7.820;2023-02-04T05:18:02;101480.59;;;8.57
77331;BMP280;66405;48.328;7.820;2023-02-04T05:20:27;101475.59;;;8.52
77331;BMP280;66405;48.328;7.820;2023-02-04T05:22:53;101477.16;;;8.49
77331;BMP280;66405;48.328;7.820;2023-02-04T05:25:21;101480.25;;;8.48
77331;BMP280;66405;48.328;7.820;2023-02-04T05:27:47;101470.63;;;8.50
77331;BMP280;66405;48.328;7.820;2023-02-04T05:30:13;101475.59;;;8.52
77331;BMP280;66405;48.328;7.820;2023-02-04T05:32:39;101472.91;;;8.52
77331;BMP280;66405;48.328;7.820;2023-02-04T05:35:05;101476.41;;;8.52
77331;BMP280;66405;48.328;7.820;2023-02-04T05:37:30;101482.53;;;8.53
77331;BMP280;66405;48.328;7.820;2023-02-04T05:39:56;101475.59;;;8.52
77331;BMP280;66405;48.328;7.820;2023-02-04T05:42:22;101473.31;;;8.54
77331;BMP280;66405;48.328;7.820;2023-02-04T05:44:47;101477.16;;;8.53
77331;BMP280;66405;48.328;7.820;2023-02-04T05:47:13;101478.31;;;8.52
77331;BMP280;66405;48.328;7.820;2023-02-04T05:49:38;101474.84;;;8.48
77331;BMP280;66405;48.328;7.820;2023-02-04T05:52:04;101474.06;;;8.47
77331;BMP280;66405;48.328;7.820;2023-02-04T05:54:29;101481.00;;;8.48
77331;BMP280;66405;48.328;7.820;2023-02-04T05:56:55;101483.34;;;8.50
77331;BMP280;66405;48.328;7.820;2023-02-04T05:59:23;101482.53;;;8.49
77331;BMP280;66405;48.328;7.820;2023-02-04T06:01:49;101492.94;;;8.47
77331;BMP280;66405;48.328;7.820;2023-02-04T06:04:14;101488.31;;;8.48
77331;BMP280;66405;48.328;7.820;2023-02-04T06:06:41;101496.41;;;8.48
77331;BMP280;66405;48.328;7.820;2023-02-04T06:09:07;101501.41;;;8.49
77331;BMP280;66405;48.328;7.820;2023-02-04T06:11:32;101497.97;;;8.52
77331;BMP280;66405;48.328;7.820;2023-02-04T06:13:58;101502.19;;;8.54
77331;BMP280;66405;48.328;7.820;2023-02-04T06:16:23;101502.94;;;8.54
77331;BMP280;66405;48.328;7.820;2023-02-04T06:18:49;101505.25;;;8.56
77331;BMP280;66405;48.328;7.820;2023-02-04T06:21:14;101508.31;;;8.58
77331;BMP280;66405;48.328;7.820;2023-02-04T06:23:40;101499.47;;;8.61
77331;BMP280;66405;48.328;7.820;2023-02-04T06:26:05;101504.09;;;8.64
77331;BMP280;66405;48.328;7.820;2023-02-04T06:28:31;101506.41;;;8.65
77331;BMP280;66405;48.328;7.820;2023-02-04T06:30:56;101520.63;;;8.66
77331;BMP280;66405;48.328;7.820;2023-02-04T06:33:22;101525.66;;;8.64
77331;BMP280;66405;48.328;7.820;2023-02-04T06:35:48;101522.56;;;8.65
77331;BMP280;66405;48.328;7.820;2023-02-04T06:38:14;101528.34;;;8.64
77331;BMP280;66405;48.328;7.820;2023-02-04T06:40:39;101532.22;;;8.66
77331;BMP280;66405;48.328;7.820;2023-02-04T06:43:05;101533.72;;;8.67
77331;BMP280;66405;48.328;7.820;2023-02-04T06:45:30;101540.25;;;8.70
77331;BMP280;66405;48.328;7.820;2023-02-04T06:47:56;101534.88;;;8.70
77331;BMP280;66405;48.328;7.820;2023-02-04T06:50:21;101532.56;;;8.72
77331;BMP280;66405;48.328;7.820;2023-02-04T06:52:47;101536.81;;;8.73
77331;BMP280;66405;48.328;7.820;2023-02-04T06:55:13;101539.13;;;8.75
77331;BMP280;66405;48.328;7.820;2023-02-04T06:57:39;101545.66;;;8.70
77331;BMP280;66405;48.328;7.820;2023-02-04T07:00:08;101546.06;;;8.68
77331;BMP280;66405;48.328;7.820;2023-02-04T07:02:34;101548.75;;;8.68
77331;BMP280;66405;48.328;7.820;2023-02-04T07:05:02;101543.34;;;8.68
77331;BMP280;66405;48.328;7.820;2023-02-04T07:07:27;101552.59;;;8.71
77331;BMP280;66405;48.328;7.820;2023-02-04T07:09:53;101554.91;;;8.73
77331;BMP280;66405;48.328;7.820;2023-02-04T07:12:18;101560.28;;;8.76
77331;BMP280;66405;48.328;7.820;2023-02-04T07:14:44;101566.44;;;8.80
77331;BMP280;66405;48.328;7.820;2023-02-04T07:17:09;101572.97;;;8.83
77331;BMP280;66405;48.328;7.820;2023-02-04T07:19:34;101583.75;;;8.87
77331;BMP280;66405;48.328;7.820;2023-02-04T07:22:01;101583.72;;;8.90
77331;BMP280;66405;48.328;7.820;2023-02-04T07:24:27;101578.34;;;8.94
77331;BMP280;66405;48.328;7.820;2023-02-04T07:26:52;101581.41;;;8.96
77331;BMP280;66405;48.328;7.820;2023-02-04T07:29:18;101584.88;;;9.00
77331;BMP280;66405;48.328;7.820;2023-02-04T07:31:44;101590.28;;;9.00
77331;BMP280;66405;48.328;7.820;2023-02-04T07:34:13;101598.75;;;9.02
77331;BMP280;66405;48.328;7.820;2023-02-04T07:36:39;101604.16;;;9.02
77331;BMP280;66405;48.328;7.820;2023-02-04T07:39:05;101607.22;;;9.04
77331;BMP280;66405;48.328;7.820;2023-02-04T07:41:30;101609.91;;;9.08
77331;BMP280;66405;48.328;7.820;2023-02-04T07:43:55;101618.75;;;9.12
77331;BMP280;66405;48.328;7.820;2023-02-04T07:46:21;101616.84;;;9.16
77331;BMP280;66405;48.328;7.820;2023-02-04T07:48:46;101616.00;;;9.19
77331;BMP280;66405;48.328;7.820;2023-02-04T07:51:12;101620.66;;;9.22
77331;BMP280;66405;48.328;7.820;2023-02-04T07:53:37;101617.56;;;9.24
77331;BMP280;66405;48.328;7.820;2023-02-04T07:56:04;101616.75;;;9.27
77331;BMP280;66405;48.328;7.820;2023-02-04T07:58:29;101629.09;;;9.31
77331;BMP280;66405;48.328;7.820;2023-02-04T08:00:55;101624.47;;;9.36
77331;BMP280;66405;48.328;7.820;2023-02-04T08:03:20;101621.34;;;9.41
77331;BMP280;66405;48.328;7.820;2023-02-04T08:05:46;101619.75;;;9.47
77331;BMP280;66405;48.328;7.820;2023-02-04T08:08:11;101617.84;;;9.51
77331;BMP280;66405;48.328;7.820;2023-02-04T08:10:37;101613.59;;;9.50
77331;BMP280;66405;48.328;7.820;2023-02-04T08:13:02;101610.50;;;9.51
77331;BMP280;66405;48.328;7.820;2023-02-04T08:15:28;101620.94;;;9.49
77331;BMP280;66405;48.328;7.820;2023-02-04T08:17:53;101624.38;;;9.50
77331;BMP280;66405;48.328;7.820;2023-02-04T08:20:19;101627.84;;;9.47
77331;BMP280;66405;48.328;7.820;2023-02-04T08:22:44;101638.66;;;9.47
77331;BMP280;66405;48.328;7.820;2023-02-04T08:25:11;101640.19;;;9.48
77331;BMP280;66405;48.328;7.820;2023-02-04T08:27:37;101642.53;;;9.49
77331;BMP280;66405;48.328;7.820;2023-02-04T08:30:03;101644.84;;;9.51
77331;BMP280;66405;48.328;7.820;2023-02-04T08:32:29;101651.00;;;9.51
77331;BMP280;66405;48.328;7.820;2023-02-04T08:34:56;101648.69;;;9.54
77331;BMP280;66405;48.328;7.820;2023-02-04T08:37:21;101651.34;;;9.57
77331;BMP280;66405;48.328;7.820;2023-02-04T08:39:47;101644.41;;;9.60
77331;BMP280;66405;48.328;7.820;2023-02-04T08:42:14;101640.16;;;9.59
77331;BMP280;66405;48.328;7.820;2023-02-04T08:44:40;101641.72;;;9.60
77331;BMP280;66405;48.328;7.820;2023-02-04T08:47:06;101641.72;;;9.60
77331;BMP280;66405;48.328;7.820;2023-02-04T08:49:32;101649.81;;;9.60
77331;BMP280;66405;48.328;7.820;2023-02-04T08:51:57;101656.38;;;9.59
77331;BMP280;66405;48.328;7.820;2023-02-04T08:54:23;101651.72;;;9.63
77331;BMP280;66405;48.328;7.820;2023-02-04T08:56:50;101661.38;;;9.64
77331;BMP280;66405;48.328;7.820;2023-02-04T08:59:16;101659.44;;;9.61
77331;BMP280;66405;48.328;7.820;2023-02-04T09:01:41;101657.53;;;9.61
77331;BMP280;66405;48.328;7.820;2023-02-04T09:04:07;101658.28;;;9.62
77331;BMP280;66405;48.328;7.820;2023-02-04T09:06:33;101664.06;;;9.64
77331;BMP280;66405;48.328;7.820;2023-02-04T09:08:58;101667.13;;;9.70
77331;BMP280;66405;48.328;7.820;2023-02-04T09:11:24;101663.66;;;9.73
77331;BMP280;66405;48.328;7.820;2023-02-04T09:13:50;101671.75;;;9.73
77331;BMP280;66405;48.328;7.820;2023-02-04T09:16:15;101669.41;;;9.75
77331;BMP280;66405;48.328;7.820;2023-02-04T09:18:42;101677.88;;;9.77
77331;BMP280;66405;48.328;7.820;2023-02-04T09:21:08;101680.16;;;9.85
77331;BMP280;66405;48.328;7.820;2023-02-04T09:23:33;101686.69;;;9.92
77331;BMP280;66405;48.328;7.820;2023-02-04T09:25:59;101682.44;;;9.91
77331;BMP280;66405;48.328;7.820;2023-02-04T09:28:25;101687.03;;;9.97
77331;BMP280;66405;48.328;7.820;2023-02-04T09:30:51;101687.38;;;10.03
77331;BMP280;66405;48.328;7.820;2023-02-04T09:33:16;101694.66;;;10.13
77331;BMP280;66405;48.328;7.820;2023-02-04T09:35:42;101693.44;;;10.22
77331;BMP280;66405;48.328;7.820;2023-02-04T09:38:07;101688.38;;;10.27
77331;BMP280;66405;48.328;7.820;2023-02-04T09:40:36;101694.16;;;10.33
77331;BMP280;66405;48.328;7.820;2023-02-04T09:43:03;101694.84;;;10.44
77331;BMP280;66405;48.328;7.820;2023-02-04T09:45:33;101700.56;;;10.54
77331;BMP280;66405;48.328;7.820;2023-02-04T09:48:01;101709.41;;;10.58
77331;BMP280;66405;48.328;7.820;2023-02-04T09:50:27;101712.50;;;10.60
77331;BMP280;66405;48.328;7.820;2023-02-04T09:52:56;101709.72;;;10.67
77331;BMP280;66405;48.328;7.820;2023-02-04T09:55:27;101710.06;;;10.73
77331;BMP280;66405;48.328;7.820;2023-02-04T09:57:53;101717.34;;;10.79
77331;BMP280;66405;48.328;7.820;2023-02-04T10:00:22;101713.81;;;10.86
77331;BMP280;66405;48.328;7.820;2023-02-04T10:02:48;101716.41;;;10.97
77331;BMP280;66405;48.328;7.820;2023-02-04T10:05:16;101717.50;;;11.03
77331;BMP280;66405;48.328;7.820;2023-02-04T10:07:42;101717.56;;;10.99
77331;BMP280;66405;48.328;7.820;2023-02-04T10:10:17;101715.63;;;11.00
77331;BMP280;66405;48.328;7.820;2023-02-04T10:12:44;101712.78;;;11.11
77331;BMP280;66405;48.328;7.820;2023-02-04T10:15:14;101711.88;;;11.25
77331;BMP280;66405;48.328;7.820;2023-02-04T10:17:41;101718.78;;;11.29
77331;BMP280;66405;48.328;7.820;2023-02-04T10:20:17;101705.56;;;11.35
77331;BMP280;66405;48.328;7.820;2023-02-04T10:22:45;101712.03;;;11.45
77331;BMP280;66405;48.328;7.820;2023-02-04T10:25:19;101718.91;;;11.53
77331;BMP280;66405;48.328;7.820;2023-02-04T10:27:55;101716.41;;;11.66
77331;BMP280;66405;48.328;7.820;2023-02-04T10:30:24;101716.94;;;11.84
77331;BMP280;66405;48.328;7.820;2023-02-04T10:32:50;101716.28;;;12.04
77331;BMP280;66405;48.328;7.820;2023-02-04T10:35:18;101717.28;;;12.17
77331;BMP280;66405;48.328;7.820;2023-02-04T10:37:44;101717.72;;;12.40
77331;BMP280;66405;48.328;7.820;2023-02-04T10:40:27;101717.03;;;12.79
77331;BMP280;66405;48.328;7.820;2023-02-04T10:42:53;101712.25;;;13.27
77331;BMP280;66405;48.328;7.820;2023-02-04T10:45:29;101712.22;;;13.67
77331;BMP280;66405;48.328;7.820;2023-02-04T10:47:55;101699.81;;;13.99
77331;BMP280;66405;48.328;7.820;2023-02-04T10:50:24;101699.63;;;14.39
77331;BMP280;66405;48.328;7.820;2023-02-04T10:52:58;101704.66;;;14.70
77331;BMP280;66405;48.328;7.820;2023-02-04T10:55:45;101710.88;;;14.84
77331;BMP280;66405;48.328;7.820;2023-02-04T10:58:14;101717.13;;;14.84
77331;BMP280;66405;48.328;7.820;2023-02-04T11:00:41;101711.72;;;14.97
77331;BMP280;66405;48.328;7.820;2023-02-04T11:03:15;101710.41;;;15.02
77331;BMP280;66405;48.328;7.820;2023-02-04T11:05:43;101716.00;;;15.11
77331;BMP280;66405;48.328;7.820;2023-02-04T11:10:55;101718.97;;;15.81
77331;BMP280;66405;48.328;7.820;2023-02-04T11:21:40;101711.31;;;17.44
77331;BMP280;66405;48.328;7.820;2023-02-04T11:26:47;101704.25;;;18.67
77331;BMP280;66405;48.328;7.820;2023-02-04T11:39:15;101694.81;;;19.10
77331;BMP280;66405;48.328;7.820;2023-02-04T11:41:45;101697.66;;;18.82
77331;BMP280;66405;48.328;7.820;2023-02-04T11:44:12;101697.41;;;18.71
77331;BMP280;66405;48.328;7.820;2023-02-04T11:46:38;101694.50;;;18.65
77331;BMP280;66405;48.328;7.820;2023-02-04T11:49:03;101705.22;;;18.45
77331;BMP280;66405;48.328;7.820;2023-02-04T11:51:31;101704.75;;;18.09
77331;BMP280;66405;48.328;7.820;2023-02-04T11:53:58;101705.94;;;17.71
77331;BMP280;66405;48.328;7.820;2023-02-04T11:56:27;101699.28;;;17.32
77331;BMP280;66405;48.328;7.820;2023-02-04T11:58:55;101715.84;;;17.06
77331;BMP280;66405;48.328;7.820;2023-02-04T12:01:23;101711.69;;;16.92
77331;BMP280;66405;48.328;7.820;2023-02-04T12:03:55;101711.66;;;16.61
77331;BMP280;66405;48.328;7.820;2023-02-04T12:06:28;101709.25;;;16.41
77331;BMP280;66405;48.328;7.820;2023-02-04T12:11:29;101713.28;;;16.80
77331;BMP280;66405;48.328;7.820;2023-02-04T12:14:05;101710.72;;;17.08
77331;BMP280;66405;48.328;7.820;2023-02-04T12:16:59;101713.03;;;17.19
77331;BMP280;66405;48.328;7.820;2023-02-04T12:19:25;101716.75;;;17.25
77331;BMP280;66405;48.328;7.820;2023-02-04T12:21:50;101717.38;;;17.07
77331;BMP280;66405;48.328;7.820;2023-02-04T12:24:16;101707.00;;;16.93
77331;BMP280;66405;48.328;7.820;2023-02-04T12:26:41;101716.50;;;16.79
77331;BMP280;66405;48.328;7.820;2023-02-04T12:29:07;101724.78;;;16.53
77331;BMP280;66405;48.328;7.820;2023-02-04T12:31:33;101715.13;;;16.39
77331;BMP280;66405;48.328;7.820;2023-02-04T12:33:59;101711.22;;;16.27
77331;BMP280;66405;48.328;7.820;2023-02-04T12:36:25;101719.34;;;16.18
77331;BMP280;66405;48.328;7.820;2023-02-04T12:38:56;101717.59;;;16.11
77331;BMP280;66405;48.328;7.820;2023-02-04T12:41:25;101715.44;;;16.19
77331;BMP280;66405;48.328;7.820;2023-02-04T12:43:50;101710.41;;;16.05
77331;BMP280;66405;48.328;7.820;2023-02-04T12:46:16;101706.19;;;15.91
77331;BMP280;66405;48.328;7.820;2023-02-04T12:48:42;101708.03;;;15.94
77331;BMP280;66405;48.328;7.820;2023-02-04T12:51:08;101714.94;;;15.86
77331;BMP280;66405;48.328;7.820;2023-02-04T12:53:33;101712.84;;;15.77
77331;BMP280;66405;48.328;7.820;2023-02-04T12:55:59;101717.56;;;15.51
77331;BMP280;66405;48.328;7.820;2023-02-04T12:58:24;101717.75;;;15.30
77331;BMP280;66405;48.328;7.820;2023-02-04T13:00:50;101714.16;;;15.21
77331;BMP280;66405;48.328;7.820;2023-02-04T13:03:15;101703.16;;;15.24
77331;BMP280;66405;48.328;7.820;2023-02-04T13:05:41;101718.94;;;15.17
77331;BMP280;66405;48.328;7.820;2023-02-04T13:08:07;101709.97;;;15.03
77331;BMP280;66405;48.328;7.820;2023-02-04T13:10:32;101710.88;;;14.84
77331;BMP280;66405;48.328;7.820;2023-02-04T13:12:59;101715.88;;;14.72
77331;BMP280;66405;48.328;7.820;2023-02-04T13:15:24;101717.59;;;14.66
77331;BMP280;66405;48.328;7.820;2023-02-04T13:17:50;101715.34;;;14.77
77331;BMP280;66405;48.328;7.820;2023-02-04T13:20:16;101721.63;;;14.91
77331;BMP280;66405;48.328;7.820;2023-02-04T13:22:41;101715.34;;;15.07
77331;BMP280;66405;48.328;7.820;2023-02-04T13:25:07;101715.16;;;15.27
77331;BMP280;66405;48.328;7.820;2023-02-04T13:27:34;101714.19;;;15.59
77331;BMP280;66405;48.328;7.820;2023-02-04T13:30:00;101710.13;;;15.90
77331;BMP280;66405;48.328;7.820;2023-02-04T13:32:25;101712.19;;;16.33
77331;BMP280;66405;48.328;7.820;2023-02-04T13:34:51;101712.94;;;17.00
77331;BMP280;66405;48.328;7.820;2023-02-04T13:37:16;101711.69;;;17.55
77331;BMP280;66405;48.328;7.820;2023-02-04T13:39:42;101714.16;;;17.71
77331;BMP280;66405;48.328;7.820;2023-02-04T13:42:08;101714.44;;;17.73
77331;BMP280;66405;48.328;7.820;2023-02-04T13:44:33;101711.38;;;17.62
77331;BMP280;66405;48.328;7.820;2023-02-04T13:46:59;101717.00;;;17.58
77331;BMP280;66405;48.328;7.820;2023-02-04T13:49:24;101719.84;;;17.46
77331;BMP280;66405;48.328;7.820;2023-02-04T13:51:49;101720.16;;;17.16
77331;BMP280;66405;48.328;7.820;2023-02-04T13:54:15;101719.75;;;16.96
77331;BMP280;66405;48.328;7.820;2023-02-04T13:56:40;101723.78;;;16.82
77331;BMP280;66405;48.328;7.820;2023-02-04T13:59:06;101728.78;;;16.61
77331;BMP280;66405;48.328;7.820;2023-02-04T14:01:31;101738.16;;;16.38
77331;BMP280;66405;48.328;7.820;2023-02-04T14:03:57;101739.44;;;16.11
77331;BMP280;66405;48.328;7.820;2023-02-04T14:06:22;101738.78;;;15.94
77331;BMP280;66405;48.328;7.820;2023-02-04T14:08:49;101738.50;;;15.79
77331;BMP280;66405;48.328;7.820;2023-02-04T14:11:15;101748.22;;;15.68
77331;BMP280;66405;48.328;7.820;2023-02-04T14:13:40;101749.28;;;15.57
77331;BMP280;66405;48.328;7.820;2023-02-04T14:16:06;101738.03;;;15.29
77331;BMP280;66405;48.328;7.820;2023-02-04T14:18:33;101740.50;;;15.11
77331;BMP280;66405;48.328;7.820;2023-02-04T14:20:59;101731.69;;;15.07
77331;BMP280;66405;48.328;7.820;2023-02-04T14:23:24;101745.25;;;14.94
77331;BMP280;66405;48.328;7.820;2023-02-04T14:25:50;101745.84;;;14.72